Elk Mountain, WY (82324)

2:56 AM MDT on July 31, 2014 (GMT -0600)
WYDOT (MKARL) Elev 7800 ft | 41.60 °N, 106.21 °W | Change Station

Current weather conditions updated 4 days ago

Mostly Cloudy
Mostly Cloudy
48 °F
Feels Like 48 °F
N
5
Wind Variable Wind from ESE
Gusts 7 mph

Today is forecast to be Much Warmer than yesterday.

Today
High -- | Low -- °F
--% Chance of Precip.
Yesterday
High -- | Low -- °F
Precip. -- in
5:58 AM 8:24 PM
Waxing Crescent, 17% visible
Pressure 30.37 in
Visibility 10.0 miles
Clouds Overcast 1800 ft
Dew Point 41 °F
Humidity 74%
Rainfall -999.00 in
Snow Depth Not available.
UV 0 out of 12
Pollen 5.00 out of 12
Air Quality Not available.
Flu Activity Not available.
METAR KEHY 310835Z AUTO 11006KT 10SM OVC018 09/06 A3037 RMK AO2

More Conditions Fewer Conditions

Pressure 30.37 in
Visibility 10.0 miles
Clouds Overcast 1800 ft
Dew Point 41 °F
Humidity 74%
Rainfall -999.00 in
Snow Depth Not available.
UV 0 out of 12
Pollen 5.00 out of 12
Air Quality Not available.
Flu Activity Not available.
METAR KEHY 310835Z AUTO 11006KT 10SM OVC018 09/06 A3037 RMK AO2

More Conditions Fewer Conditions

10-Day Weather Forecast

Almanac

Astronomy

Jul. 31, 2014 Rise Set
Actual Time 5:58 AM MDT 8:24 PM MDT
Civil Twilight 5:27 AM MDT 8:55 PM MDT
Nautical Twilight 4:48 AM MDT 9:34 PM MDT
Astronomical Twilight 4:04 AM MDT 10:17 PM MDT
Moon 10:33 AM MDT 10:33 PM MDT
Length of Visible Light 15h 28m
Length of Day
14h 25m
Tomorrow will be 2m 6s shorter.
Waxing Crescent, 17% of the Moon is Illuminated
Today
Waxing Crescent
Aug 3
First Quarter
Aug 10
Full
Aug 17
Last Quarter
Aug 25
New

Today's Extremes

State Highs State Lows

Community

WunderPhotos

Upload Photos

1,739,258 photos uploaded!

Nearby

Snow Depth

Station Depth Elevation
Sand Lake 0 in 10050 ft
Brooklyn Lake 0 in 10220 ft
South Brush Creek 0 in 8440 ft
Cinnabar Park 1 in 9690 ft
Webber Springs 0 in 9250 ft

Earthquake Activity

City Distance Mag. Time & Date
No recent earthquake activity has been reported nearby.
Minimum magnitude displayed is 2.5.

Coastal Water Temperatures

Place Temperature
No Stations Reporting

Nearby Weather Stations

Station Location Temp. Windchill Dew Point Humidity Wind Precip. Elev Updated Type
HADS MEDICINE BOW RIVER ABOVE EAST FO WY, Elk Mountain, WY 42 °F 42 °F - - North  at  - 0.00 in / hr 8000 ft 1:45 AM MDT MADIS
Medicine Bow, WY 50.4 °F - 48 °F 91% East  at  5.0 mph 0.00 in / hr 6646 ft 2:42 AM MDT Normal
MesoWest MEDIC1 , Medicine Bow, WY 49 °F 49 °F - - North  at  - 0.00 in / hr 6650 ft 2:00 AM MDT MADIS
MesoWest RKRIVR , Rock River, WY 43 °F 43 °F - - South  at  1 mph 0.00 in / hr 6906 ft 2:05 AM MDT MADIS
MesoWest WILCX1 , Rock River, WY 58 °F - - - North  at  - 0.00 in / hr 7004 ft 2:00 AM MDT MADIS

Show More Stations Show Fewer Stations